sensor_id;sensor_type;location;lat;lon;timestamp;P1;durP1;ratioP1;P2;durP2;ratioP2
53263;SDS011;39153;52.680;6.172;2022-10-17T00:01:10;8.40;;;4.00;;
53263;SDS011;39153;52.680;6.172;2022-10-17T00:03:36;9.85;;;4.53;;
53263;SDS011;39153;52.680;6.172;2022-10-17T00:06:04;8.30;;;4.15;;
53263;SDS011;39153;52.680;6.172;2022-10-17T00:08:38;8.55;;;4.47;;
53263;SDS011;39153;52.680;6.172;2022-10-17T00:11:10;9.38;;;4.50;;
53263;SDS011;39153;52.680;6.172;2022-10-17T00:13:39;8.93;;;4.70;;
53263;SDS011;39153;52.680;6.172;2022-10-17T00:16:05;11.60;;;5.05;;
53263;SDS011;39153;52.680;6.172;2022-10-17T00:18:31;10.70;;;4.80;;
53263;SDS011;39153;52.680;6.172;2022-10-17T00:20:56;9.90;;;5.03;;
53263;SDS011;39153;52.680;6.172;2022-10-17T00:23:22;9.95;;;4.90;;
53263;SDS011;39153;52.680;6.172;2022-10-17T00:25:56;10.05;;;5.20;;
53263;SDS011;39153;52.680;6.172;2022-10-17T00:28:23;12.05;;;5.50;;
53263;SDS011;39153;52.680;6.172;2022-10-17T00:30:58;10.18;;;5.32;;
53263;SDS011;39153;52.680;6.172;2022-10-17T00:33:26;12.18;;;5.93;;
53263;SDS011;39153;52.680;6.172;2022-10-17T00:36:05;9.73;;;5.72;;
53263;SDS011;39153;52.680;6.172;2022-10-17T00:38:33;10.90;;;5.70;;
53263;SDS011;39153;52.680;6.172;2022-10-17T00:41:00;12.55;;;5.95;;
53263;SDS011;39153;52.680;6.172;2022-10-17T00:43:26;12.35;;;5.63;;
53263;SDS011;39153;52.680;6.172;2022-10-17T00:45:53;11.90;;;6.00;;
53263;SDS011;39153;52.680;6.172;2022-10-17T00:48:19;9.73;;;6.35;;
53263;SDS011;39153;52.680;6.172;2022-10-17T00:50:46;10.35;;;6.30;;
53263;SDS011;39153;52.680;6.172;2022-10-17T00:53:14;11.55;;;6.90;;
53263;SDS011;39153;52.680;6.172;2022-10-17T00:55:41;9.88;;;6.10;;
53263;SDS011;39153;52.680;6.172;2022-10-17T00:58:13;12.23;;;6.75;;
53263;SDS011;39153;52.680;6.172;2022-10-17T01:00:39;9.55;;;6.47;;
53263;SDS011;39153;52.680;6.172;2022-10-17T01:03:06;8.55;;;6.82;;
53263;SDS011;39153;52.680;6.172;2022-10-17T01:05:32;11.98;;;7.55;;
53263;SDS011;39153;52.680;6.172;2022-10-17T01:07:58;11.18;;;7.68;;
53263;SDS011;39153;52.680;6.172;2022-10-17T01:10:26;8.95;;;6.55;;
53263;SDS011;39153;52.680;6.172;2022-10-17T01:16:05;10.52;;;7.68;;
53263;SDS011;39153;52.680;6.172;2022-10-17T01:18:59;11.00;;;7.22;;
53263;SDS011;39153;52.680;6.172;2022-10-17T01:21:41;11.18;;;8.50;;
53263;SDS011;39153;52.680;6.172;2022-10-17T01:32:36;11.85;;;9.40;;
53263;SDS011;39153;52.680;6.172;2022-10-17T01:35:24;11.90;;;9.32;;
53263;SDS011;39153;52.680;6.172;2022-10-17T01:38:10;11.02;;;9.93;;
53263;SDS011;39153;52.680;6.172;2022-10-17T01:40:56;12.27;;;10.07;;
53263;SDS011;39153;52.680;6.172;2022-10-17T01:43:35;12.55;;;10.25;;
53263;SDS011;39153;52.680;6.172;2022-10-17T01:46:10;14.38;;;10.80;;
53263;SDS011;39153;52.680;6.172;2022-10-17T01:48:50;15.18;;;10.13;;
53263;SDS011;39153;52.680;6.172;2022-10-17T01:51:17;13.82;;;10.80;;
53263;SDS011;39153;52.680;6.172;2022-10-17T01:54:13;13.27;;;10.68;;
53263;SDS011;39153;52.680;6.172;2022-10-17T01:56:53;12.68;;;11.15;;
53263;SDS011;39153;52.680;6.172;2022-10-17T01:59:23;14.02;;;11.50;;
53263;SDS011;39153;52.680;6.172;2022-10-17T02:01:53;13.07;;;10.82;;
53263;SDS011;39153;52.680;6.172;2022-10-17T02:04:21;12.25;;;10.52;;
53263;SDS011;39153;52.680;6.172;2022-10-17T02:06:47;13.98;;;11.68;;
53263;SDS011;39153;52.680;6.172;2022-10-17T02:09:15;14.85;;;11.65;;
53263;SDS011;39153;52.680;6.172;2022-10-17T02:12:23;13.45;;;11.63;;
53263;SDS011;39153;52.680;6.172;2022-10-17T02:30:52;13.75;;;12.30;;
53263;SDS011;39153;52.680;6.172;2022-10-17T02:33:27;16.38;;;13.60;;
53263;SDS011;39153;52.680;6.172;2022-10-17T02:36:00;14.48;;;13.00;;
53263;SDS011;39153;52.680;6.172;2022-10-17T02:38:30;14.80;;;13.30;;
53263;SDS011;39153;52.680;6.172;2022-10-17T02:40:58;15.52;;;13.93;;
53263;SDS011;39153;52.680;6.172;2022-10-17T02:43:25;15.13;;;13.52;;
53263;SDS011;39153;52.680;6.172;2022-10-17T02:45:51;15.57;;;13.25;;
53263;SDS011;39153;52.680;6.172;2022-10-17T02:48:23;17.02;;;14.77;;
53263;SDS011;39153;52.680;6.172;2022-10-17T02:53:41;17.00;;;14.57;;
53263;SDS011;39153;52.680;6.172;2022-10-17T02:56:20;19.48;;;14.93;;
53263;SDS011;39153;52.680;6.172;2022-10-17T02:58:53;18.60;;;15.75;;
53263;SDS011;39153;52.680;6.172;2022-10-17T03:01:22;18.88;;;16.88;;
53263;SDS011;39153;52.680;6.172;2022-10-17T03:03:48;19.15;;;17.13;;
53263;SDS011;39153;52.680;6.172;2022-10-17T03:06:14;18.75;;;16.77;;
53263;SDS011;39153;52.680;6.172;2022-10-17T03:08:40;19.67;;;17.52;;
53263;SDS011;39153;52.680;6.172;2022-10-17T03:11:06;19.10;;;17.08;;
53263;SDS011;39153;52.680;6.172;2022-10-17T03:13:31;18.90;;;17.10;;
53263;SDS011;39153;52.680;6.172;2022-10-17T03:15:57;21.10;;;18.05;;
53263;SDS011;39153;52.680;6.172;2022-10-17T03:18:23;19.83;;;17.67;;
53263;SDS011;39153;52.680;6.172;2022-10-17T03:20:48;19.83;;;17.58;;
53263;SDS011;39153;52.680;6.172;2022-10-17T03:23:14;19.67;;;17.58;;
53263;SDS011;39153;52.680;6.172;2022-10-17T03:25:40;22.13;;;19.73;;
53263;SDS011;39153;52.680;6.172;2022-10-17T03:28:05;20.45;;;18.35;;
53263;SDS011;39153;52.680;6.172;2022-10-17T03:30:31;22.15;;;19.85;;
53263;SDS011;39153;52.680;6.172;2022-10-17T03:32:57;22.23;;;19.83;;
53263;SDS011;39153;52.680;6.172;2022-10-17T03:35:23;22.00;;;18.98;;
53263;SDS011;39153;52.680;6.172;2022-10-17T03:37:50;20.25;;;18.25;;
53263;SDS011;39153;52.680;6.172;2022-10-17T03:40:15;23.50;;;20.40;;
53263;SDS011;39153;52.680;6.172;2022-10-17T03:42:41;21.73;;;19.48;;
53263;SDS011;39153;52.680;6.172;2022-10-17T03:45:07;21.08;;;18.95;;
53263;SDS011;39153;52.680;6.172;2022-10-17T03:47:33;22.23;;;19.60;;
53263;SDS011;39153;52.680;6.172;2022-10-17T03:49:59;23.25;;;20.83;;
53263;SDS011;39153;52.680;6.172;2022-10-17T03:52:24;22.90;;;20.50;;
53263;SDS011;39153;52.680;6.172;2022-10-17T03:54:50;22.55;;;20.23;;
53263;SDS011;39153;52.680;6.172;2022-10-17T03:57:16;23.60;;;21.05;;
53263;SDS011;39153;52.680;6.172;2022-10-17T03:59:42;23.48;;;18.35;;
53263;SDS011;39153;52.680;6.172;2022-10-17T04:02:08;26.77;;;21.00;;
53263;SDS011;39153;52.680;6.172;2022-10-17T04:04:34;24.20;;;21.63;;
53263;SDS011;39153;52.680;6.172;2022-10-17T04:06:59;24.35;;;21.70;;
53263;SDS011;39153;52.680;6.172;2022-10-17T04:09:25;23.67;;;21.17;;
53263;SDS011;39153;52.680;6.172;2022-10-17T04:11:51;23.90;;;21.48;;
53263;SDS011;39153;52.680;6.172;2022-10-17T04:14:16;24.10;;;21.20;;
53263;SDS011;39153;52.680;6.172;2022-10-17T04:16:42;24.92;;;22.33;;
53263;SDS011;39153;52.680;6.172;2022-10-17T04:19:09;25.13;;;21.10;;
53263;SDS011;39153;52.680;6.172;2022-10-17T04:21:37;25.42;;;21.42;;
53263;SDS011;39153;52.680;6.172;2022-10-17T04:24:03;25.45;;;21.67;;
53263;SDS011;39153;52.680;6.172;2022-10-17T04:26:28;24.95;;;22.23;;
53263;SDS011;39153;52.680;6.172;2022-10-17T04:28:54;26.45;;;22.40;;
53263;SDS011;39153;52.680;6.172;2022-10-17T04:31:20;25.40;;;22.70;;
53263;SDS011;39153;52.680;6.172;2022-10-17T04:33:46;24.55;;;21.92;;
53263;SDS011;39153;52.680;6.172;2022-10-17T04:36:14;26.05;;;21.33;;
53263;SDS011;39153;52.680;6.172;2022-10-17T04:38:41;27.15;;;23.08;;
53263;SDS011;39153;52.680;6.172;2022-10-17T04:41:09;27.70;;;22.55;;
53263;SDS011;39153;52.680;6.172;2022-10-17T04:43:36;26.52;;;20.60;;
53263;SDS011;39153;52.680;6.172;2022-10-17T04:46:04;22.70;;;20.25;;
53263;SDS011;39153;52.680;6.172;2022-10-17T04:48:31;24.70;;;20.58;;
53263;SDS011;39153;52.680;6.172;2022-10-17T04:50:58;24.23;;;20.13;;
53263;SDS011;39153;52.680;6.172;2022-10-17T04:53:25;22.98;;;19.35;;
53263;SDS011;39153;52.680;6.172;2022-10-17T04:55:52;25.80;;;20.67;;
53263;SDS011;39153;52.680;6.172;2022-10-17T04:58:18;22.48;;;18.98;;
53263;SDS011;39153;52.680;6.172;2022-10-17T05:00:44;26.45;;;19.08;;
53263;SDS011;39153;52.680;6.172;2022-10-17T05:03:10;24.42;;;19.50;;
53263;SDS011;39153;52.680;6.172;2022-10-17T05:05:37;22.58;;;18.92;;
53263;SDS011;39153;52.680;6.172;2022-10-17T05:08:03;23.10;;;18.20;;
53263;SDS011;39153;52.680;6.172;2022-10-17T05:10:34;20.88;;;17.90;;
53263;SDS011;39153;52.680;6.172;2022-10-17T05:13:04;23.42;;;18.65;;
53263;SDS011;39153;52.680;6.172;2022-10-17T05:15:30;18.38;;;16.30;;
53263;SDS011;39153;52.680;6.172;2022-10-17T05:17:56;21.55;;;18.55;;
53263;SDS011;39153;52.680;6.172;2022-10-17T05:20:22;19.77;;;17.50;;
53263;SDS011;39153;52.680;6.172;2022-10-17T05:22:49;24.20;;;18.33;;
53263;SDS011;39153;52.680;6.172;2022-10-17T05:25:15;21.35;;;17.95;;
53263;SDS011;39153;52.680;6.172;2022-10-17T05:27:41;18.98;;;16.20;;
53263;SDS011;39153;52.680;6.172;2022-10-17T05:30:07;21.45;;;16.15;;
53263;SDS011;39153;52.680;6.172;2022-10-17T05:32:33;20.02;;;16.67;;
53263;SDS011;39153;52.680;6.172;2022-10-17T05:34:59;21.73;;;16.73;;
53263;SDS011;39153;52.680;6.172;2022-10-17T05:37:25;19.05;;;16.35;;
53263;SDS011;39153;52.680;6.172;2022-10-17T05:39:53;19.05;;;16.08;;
53263;SDS011;39153;52.680;6.172;2022-10-17T05:42:19;18.35;;;15.98;;
53263;SDS011;39153;52.680;6.172;2022-10-17T05:44:45;21.73;;;16.50;;
53263;SDS011;39153;52.680;6.172;2022-10-17T05:47:10;19.90;;;15.75;;
53263;SDS011;39153;52.680;6.172;2022-10-17T05:49:36;18.27;;;16.27;;
53263;SDS011;39153;52.680;6.172;2022-10-17T05:52:02;17.67;;;15.50;;
53263;SDS011;39153;52.680;6.172;2022-10-17T05:54:27;21.40;;;15.48;;
53263;SDS011;39153;52.680;6.172;2022-10-17T05:56:55;18.08;;;14.85;;
53263;SDS011;39153;52.680;6.172;2022-10-17T05:59:22;21.80;;;16.70;;
53263;SDS011;39153;52.680;6.172;2022-10-17T06:01:49;20.95;;;15.90;;
53263;SDS011;39153;52.680;6.172;2022-10-17T06:04:15;19.05;;;15.98;;
53263;SDS011;39153;52.680;6.172;2022-10-17T06:06:41;17.83;;;15.52;;
53263;SDS011;39153;52.680;6.172;2022-10-17T06:09:07;19.13;;;16.00;;
53263;SDS011;39153;52.680;6.172;2022-10-17T06:11:33;20.77;;;15.70;;
53263;SDS011;39153;52.680;6.172;2022-10-17T06:13:59;19.25;;;15.75;;
53263;SDS011;39153;52.680;6.172;2022-10-17T06:16:26;21.63;;;15.20;;
53263;SDS011;39153;52.680;6.172;2022-10-17T06:18:51;18.50;;;14.73;;
53263;SDS011;39153;52.680;6.172;2022-10-17T06:21:18;20.30;;;16.02;;
53263;SDS011;39153;52.680;6.172;2022-10-17T06:23:46;18.50;;;15.30;;
53263;SDS011;39153;52.680;6.172;2022-10-17T06:26:12;18.10;;;14.45;;
53263;SDS011;39153;52.680;6.172;2022-10-17T06:28:38;18.23;;;15.40;;
53263;SDS011;39153;52.680;6.172;2022-10-17T06:31:09;20.15;;;15.38;;
53263;SDS011;39153;52.680;6.172;2022-10-17T06:33:36;17.27;;;15.43;;
53263;SDS011;39153;52.680;6.172;2022-10-17T06:36:02;20.00;;;14.88;;
53263;SDS011;39153;52.680;6.172;2022-10-17T06:38:29;17.48;;;14.95;;
53263;SDS011;39153;52.680;6.172;2022-10-17T06:41:16;17.90;;;14.75;;
53263;SDS011;39153;52.680;6.172;2022-10-17T06:43:43;16.20;;;14.10;;
53263;SDS011;39153;52.680;6.172;2022-10-17T06:46:13;20.27;;;13.75;;
53263;SDS011;39153;52.680;6.172;2022-10-17T06:48:39;17.38;;;13.63;;
53263;SDS011;39153;52.680;6.172;2022-10-17T06:51:06;16.35;;;13.80;;
53263;SDS011;39153;52.680;6.172;2022-10-17T06:53:34;15.98;;;13.32;;
53263;SDS011;39153;52.680;6.172;2022-10-17T06:56:00;21.38;;;13.88;;
53263;SDS011;39153;52.680;6.172;2022-10-17T06:58:29;16.50;;;13.10;;
53263;SDS011;39153;52.680;6.172;2022-10-17T07:01:02;17.65;;;13.35;;
53263;SDS011;39153;52.680;6.172;2022-10-17T07:03:30;20.25;;;12.95;;
53263;SDS011;39153;52.680;6.172;2022-10-17T07:05:56;15.18;;;13.15;;
53263;SDS011;39153;52.680;6.172;2022-10-17T07:08:22;17.80;;;12.75;;
53263;SDS011;39153;52.680;6.172;2022-10-17T07:10:49;15.25;;;12.95;;
53263;SDS011;39153;52.680;6.172;2022-10-17T07:13:15;19.63;;;12.27;;
53263;SDS011;39153;52.680;6.172;2022-10-17T07:15:41;14.90;;;12.73;;
53263;SDS011;39153;52.680;6.172;2022-10-17T07:18:07;15.45;;;12.55;;
53263;SDS011;39153;52.680;6.172;2022-10-17T07:20:33;16.85;;;12.40;;
53263;SDS011;39153;52.680;6.172;2022-10-17T07:22:58;20.85;;;12.60;;
53263;SDS011;39153;52.680;6.172;2022-10-17T07:25:24;14.60;;;12.50;;
53263;SDS011;39153;52.680;6.172;2022-10-17T07:27:50;16.70;;;12.73;;
53263;SDS011;39153;52.680;6.172;2022-10-17T07:30:17;14.52;;;12.30;;
53263;SDS011;39153;52.680;6.172;2022-10-17T07:32:43;14.30;;;12.30;;
53263;SDS011;39153;52.680;6.172;2022-10-17T07:35:09;13.57;;;12.18;;
53263;SDS011;39153;52.680;6.172;2022-10-17T07:37:36;14.18;;;11.88;;
53263;SDS011;39153;52.680;6.172;2022-10-17T07:40:02;14.30;;;12.07;;
53263;SDS011;39153;52.680;6.172;2022-10-17T07:42:30;15.98;;;12.63;;
53263;SDS011;39153;52.680;6.172;2022-10-17T07:44:56;18.77;;;12.88;;
53263;SDS011;39153;52.680;6.172;2022-10-17T07:47:22;17.10;;;12.52;;
53263;SDS011;39153;52.680;6.172;2022-10-17T07:49:48;15.50;;;12.23;;
53263;SDS011;39153;52.680;6.172;2022-10-17T07:52:14;13.65;;;11.80;;
53263;SDS011;39153;52.680;6.172;2022-10-17T07:54:40;17.25;;;11.93;;
53263;SDS011;39153;52.680;6.172;2022-10-17T07:57:07;17.63;;;12.23;;
53263;SDS011;39153;52.680;6.172;2022-10-17T07:59:33;15.77;;;12.13;;
53263;SDS011;39153;52.680;6.172;2022-10-17T08:02:00;15.43;;;12.30;;
53263;SDS011;39153;52.680;6.172;2022-10-17T08:04:27;15.40;;;12.40;;
53263;SDS011;39153;52.680;6.172;2022-10-17T08:06:53;16.65;;;12.30;;
53263;SDS011;39153;52.680;6.172;2022-10-17T08:09:19;14.45;;;12.13;;
53263;SDS011;39153;52.680;6.172;2022-10-17T08:11:45;13.18;;;11.70;;
53263;SDS011;39153;52.680;6.172;2022-10-17T08:14:11;14.65;;;11.60;;
53263;SDS011;39153;52.680;6.172;2022-10-17T08:16:38;15.40;;;12.23;;
53263;SDS011;39153;52.680;6.172;2022-10-17T08:19:04;14.73;;;11.43;;
53263;SDS011;39153;52.680;6.172;2022-10-17T08:21:30;17.67;;;11.82;;
53263;SDS011;39153;52.680;6.172;2022-10-17T08:23:55;15.90;;;12.00;;
53263;SDS011;39153;52.680;6.172;2022-10-17T08:26:21;14.95;;;12.13;;
53263;SDS011;39153;52.680;6.172;2022-10-17T08:28:47;15.50;;;12.73;;
53263;SDS011;39153;52.680;6.172;2022-10-17T08:31:14;14.18;;;12.68;;
53263;SDS011;39153;52.680;6.172;2022-10-17T08:33:42;14.73;;;12.00;;
53263;SDS011;39153;52.680;6.172;2022-10-17T08:36:09;14.32;;;12.80;;
53263;SDS011;39153;52.680;6.172;2022-10-17T08:38:37;18.77;;;12.80;;
53263;SDS011;39153;52.680;6.172;2022-10-17T08:41:11;17.75;;;13.15;;
53263;SDS011;39153;52.680;6.172;2022-10-17T08:44:08;16.45;;;12.40;;
53263;SDS011;39153;52.680;6.172;2022-10-17T08:46:52;14.90;;;12.00;;
53263;SDS011;39153;52.680;6.172;2022-10-17T08:49:42;17.25;;;13.18;;
53263;SDS011;39153;52.680;6.172;2022-10-17T08:52:23;14.88;;;12.52;;
53263;SDS011;39153;52.680;6.172;2022-10-17T08:54:50;14.52;;;12.38;;
53263;SDS011;39153;52.680;6.172;2022-10-17T08:57:16;15.85;;;12.15;;
53263;SDS011;39153;52.680;6.172;2022-10-17T08:59:48;14.15;;;12.63;;
53263;SDS011;39153;52.680;6.172;2022-10-17T09:13:57;19.77;;;12.75;;
53263;SDS011;39153;52.680;6.172;2022-10-17T09:16:37;16.55;;;13.02;;
53263;SDS011;39153;52.680;6.172;2022-10-17T09:21:42;19.80;;;13.63;;
53263;SDS011;39153;52.680;6.172;2022-10-17T09:24:27;17.27;;;13.38;;
53263;SDS011;39153;52.680;6.172;2022-10-17T09:26:54;17.77;;;12.57;;
53263;SDS011;39153;52.680;6.172;2022-10-17T09:29:21;19.30;;;13.65;;
53263;SDS011;39153;52.680;6.172;2022-10-17T09:34:28;18.52;;;13.68;;
53263;SDS011;39153;52.680;6.172;2022-10-17T09:36:56;17.95;;;14.20;;
53263;SDS011;39153;52.680;6.172;2022-10-17T09:39:26;18.20;;;13.82;;
53263;SDS011;39153;52.680;6.172;2022-10-17T09:41:57;19.00;;;15.23;;
53263;SDS011;39153;52.680;6.172;2022-10-17T09:49:42;23.85;;;16.75;;
53263;SDS011;39153;52.680;6.172;2022-10-17T09:52:21;24.30;;;16.45;;
53263;SDS011;39153;52.680;6.172;2022-10-17T09:57:50;21.75;;;17.55;;
53263;SDS011;39153;52.680;6.172;2022-10-17T10:00:23;24.35;;;17.35;;
53263;SDS011;39153;52.680;6.172;2022-10-17T10:03:16;27.60;;;20.35;;
53263;SDS011;39153;52.680;6.172;2022-10-17T10:05:57;24.35;;;19.73;;
53263;SDS011;39153;52.680;6.172;2022-10-17T10:08:25;25.40;;;19.33;;
53263;SDS011;39153;52.680;6.172;2022-10-17T10:10:58;27.48;;;19.25;;
53263;SDS011;39153;52.680;6.172;2022-10-17T10:13:29;29.85;;;20.13;;
53263;SDS011;39153;52.680;6.172;2022-10-17T10:16:11;27.70;;;19.75;;
53263;SDS011;39153;52.680;6.172;2022-10-17T10:18:37;23.50;;;18.85;;
53263;SDS011;39153;52.680;6.172;2022-10-17T10:23:34;27.85;;;20.10;;
53263;SDS011;39153;52.680;6.172;2022-10-17T10:29:00;27.38;;;19.70;;
53263;SDS011;39153;52.680;6.172;2022-10-17T10:31:29;25.95;;;19.50;;
53263;SDS011;39153;52.680;6.172;2022-10-17T10:34:02;27.90;;;19.75;;
53263;SDS011;39153;52.680;6.172;2022-10-17T10:36:48;27.40;;;19.65;;
53263;SDS011;39153;52.680;6.172;2022-10-17T10:39:19;27.40;;;19.30;;
53263;SDS011;39153;52.680;6.172;2022-10-17T10:41:51;25.83;;;20.27;;
53263;SDS011;39153;52.680;6.172;2022-10-17T10:44:17;27.73;;;21.25;;
53263;SDS011;39153;52.680;6.172;2022-10-17T10:46:48;32.83;;;22.25;;
53263;SDS011;39153;52.680;6.172;2022-10-17T10:50:36;28.98;;;20.17;;
53263;SDS011;39153;52.680;6.172;2022-10-17T10:52:55;27.13;;;20.27;;
53263;SDS011;39153;52.680;6.172;2022-10-17T10:55:35;33.08;;;23.05;;
53263;SDS011;39153;52.680;6.172;2022-10-17T10:58:13;30.52;;;22.13;;
53263;SDS011;39153;52.680;6.172;2022-10-17T11:00:50;31.70;;;23.10;;
53263;SDS011;39153;52.680;6.172;2022-10-17T11:03:22;29.48;;;22.85;;
53263;SDS011;39153;52.680;6.172;2022-10-17T11:06:05;32.63;;;22.83;;
53263;SDS011;39153;52.680;6.172;2022-10-17T11:08:48;31.15;;;21.75;;
53263;SDS011;39153;52.680;6.172;2022-10-17T11:11:26;34.30;;;22.67;;
53263;SDS011;39153;52.680;6.172;2022-10-17T11:14:00;31.08;;;22.10;;
53263;SDS011;39153;52.680;6.172;2022-10-17T11:22:08;28.92;;;21.60;;
53263;SDS011;39153;52.680;6.172;2022-10-17T11:24:52;31.45;;;22.33;;
53263;SDS011;39153;52.680;6.172;2022-10-17T11:27:24;31.40;;;22.67;;
53263;SDS011;39153;52.680;6.172;2022-10-17T11:29:52;29.55;;;21.45;;
53263;SDS011;39153;52.680;6.172;2022-10-17T11:32:32;27.02;;;20.90;;
53263;SDS011;39153;52.680;6.172;2022-10-17T11:41:07;29.40;;;20.80;;
53263;SDS011;39153;52.680;6.172;2022-10-17T11:51:34;23.27;;;18.52;;
53263;SDS011;39153;52.680;6.172;2022-10-17T11:54:12;24.13;;;19.02;;
53263;SDS011;39153;52.680;6.172;2022-10-17T11:57:09;21.95;;;18.13;;
53263;SDS011;39153;52.680;6.172;2022-10-17T12:05:03;20.50;;;16.15;;
53263;SDS011;39153;52.680;6.172;2022-10-17T12:15:57;16.00;;;14.13;;
53263;SDS011;39153;52.680;6.172;2022-10-17T12:19:19;15.93;;;12.40;;
53263;SDS011;39153;52.680;6.172;2022-10-17T12:24:40;15.95;;;12.70;;
53263;SDS011;39153;52.680;6.172;2022-10-17T12:33:33;16.55;;;14.63;;
53263;SDS011;39153;52.680;6.172;2022-10-17T12:35:46;17.20;;;14.40;;
53263;SDS011;39153;52.680;6.172;2022-10-17T12:56:15;6.35;;;3.50;;
53263;SDS011;39153;52.680;6.172;2022-10-17T12:58:47;6.10;;;3.50;;
53263;SDS011;39153;52.680;6.172;2022-10-17T13:01:18;6.20;;;3.20;;
53263;SDS011;39153;52.680;6.172;2022-10-17T13:03:50;6.47;;;3.10;;
53263;SDS011;39153;52.680;6.172;2022-10-17T13:06:27;8.40;;;3.42;;
53263;SDS011;39153;52.680;6.172;2022-10-17T13:08:56;7.22;;;3.05;;
53263;SDS011;39153;52.680;6.172;2022-10-17T13:11:24;6.50;;;3.15;;
53263;SDS011;39153;52.680;6.172;2022-10-17T13:13:53;6.43;;;2.72;;
53263;SDS011;39153;52.680;6.172;2022-10-17T13:16:32;5.93;;;3.25;;
53263;SDS011;39153;52.680;6.172;2022-10-17T13:19:01;5.78;;;3.20;;
53263;SDS011;39153;52.680;6.172;2022-10-17T13:21:28;6.20;;;3.25;;
53263;SDS011;39153;52.680;6.172;2022-10-17T13:23:54;8.35;;;3.38;;
53263;SDS011;39153;52.680;6.172;2022-10-17T13:31:36;9.02;;;3.38;;
53263;SDS011;39153;52.680;6.172;2022-10-17T13:36:31;8.70;;;3.00;;
53263;SDS011;39153;52.680;6.172;2022-10-17T13:39:05;5.63;;;3.10;;
53263;SDS011;39153;52.680;6.172;2022-10-17T13:41:33;7.88;;;3.65;;
53263;SDS011;39153;52.680;6.172;2022-10-17T13:43:59;4.28;;;2.60;;
53263;SDS011;39153;52.680;6.172;2022-10-17T13:46:28;5.03;;;2.80;;
53263;SDS011;39153;52.680;6.172;2022-10-17T13:48:56;5.00;;;2.80;;
53263;SDS011;39153;52.680;6.172;2022-10-17T13:51:24;4.70;;;2.53;;
53263;SDS011;39153;52.680;6.172;2022-10-17T13:53:51;6.20;;;2.80;;
53263;SDS011;39153;52.680;6.172;2022-10-17T13:56:18;5.97;;;3.13;;
53263;SDS011;39153;52.680;6.172;2022-10-17T13:58:56;7.40;;;3.10;;
53263;SDS011;39153;52.680;6.172;2022-10-17T14:01:26;6.82;;;3.10;;
53263;SDS011;39153;52.680;6.172;2022-10-17T14:03:53;6.95;;;2.90;;
53263;SDS011;39153;52.680;6.172;2022-10-17T14:06:25;5.22;;;2.72;;
53263;SDS011;39153;52.680;6.172;2022-10-17T14:13:48;5.43;;;3.35;;
53263;SDS011;39153;52.680;6.172;2022-10-17T14:16:16;6.40;;;4.10;;
53263;SDS011;39153;52.680;6.172;2022-10-17T14:18:44;6.40;;;3.88;;
53263;SDS011;39153;52.680;6.172;2022-10-17T14:21:17;7.88;;;3.88;;
53263;SDS011;39153;52.680;6.172;2022-10-17T14:23:45;6.85;;;3.67;;
53263;SDS011;39153;52.680;6.172;2022-10-17T14:26:18;6.15;;;3.30;;
53263;SDS011;39153;52.680;6.172;2022-10-17T14:29:02;5.88;;;3.10;;
53263;SDS011;39153;52.680;6.172;2022-10-17T14:31:42;5.97;;;3.22;;
53263;SDS011;39153;52.680;6.172;2022-10-17T14:34:15;10.90;;;4.10;;
53263;SDS011;39153;52.680;6.172;2022-10-17T14:36:47;6.47;;;3.58;;
53263;SDS011;39153;52.680;6.172;2022-10-17T14:39:25;5.85;;;3.78;;
53263;SDS011;39153;52.680;6.172;2022-10-17T14:41:52;7.60;;;4.38;;
53263;SDS011;39153;52.680;6.172;2022-10-17T14:46:55;7.45;;;4.75;;
53263;SDS011;39153;52.680;6.172;2022-10-17T14:49:27;9.68;;;4.85;;
53263;SDS011;39153;52.680;6.172;2022-10-17T14:54:39;8.02;;;5.18;;
53263;SDS011;39153;52.680;6.172;2022-10-17T15:00:16;7.35;;;5.18;;
53263;SDS011;39153;52.680;6.172;2022-10-17T15:02:44;7.57;;;5.45;;
53263;SDS011;39153;52.680;6.172;2022-10-17T15:05:10;7.25;;;4.95;;
53263;SDS011;39153;52.680;6.172;2022-10-17T15:07:37;7.15;;;4.80;;
53263;SDS011;39153;52.680;6.172;2022-10-17T15:10:03;7.35;;;5.35;;
53263;SDS011;39153;52.680;6.172;2022-10-17T15:12:29;8.35;;;5.40;;
53263;SDS011;39153;52.680;6.172;2022-10-17T15:14:55;7.10;;;5.50;;
53263;SDS011;39153;52.680;6.172;2022-10-17T15:17:22;8.30;;;5.45;;
53263;SDS011;39153;52.680;6.172;2022-10-17T15:19:58;8.40;;;6.28;;
53263;SDS011;39153;52.680;6.172;2022-10-17T15:22:24;7.60;;;5.60;;
53263;SDS011;39153;52.680;6.172;2022-10-17T15:24:50;9.52;;;6.47;;
53263;SDS011;39153;52.680;6.172;2022-10-17T15:27:19;9.75;;;6.30;;
53263;SDS011;39153;52.680;6.172;2022-10-17T15:29:47;9.02;;;6.13;;
53263;SDS011;39153;52.680;6.172;2022-10-17T15:32:13;8.18;;;6.65;;
53263;SDS011;39153;52.680;6.172;2022-10-17T15:34:39;8.20;;;6.95;;
53263;SDS011;39153;52.680;6.172;2022-10-17T15:37:06;9.75;;;7.03;;
53263;SDS011;39153;52.680;6.172;2022-10-17T15:39:39;8.45;;;6.93;;
53263;SDS011;39153;52.680;6.172;2022-10-17T15:42:07;9.23;;;7.22;;
53263;SDS011;39153;52.680;6.172;2022-10-17T15:44:35;8.23;;;6.40;;
53263;SDS011;39153;52.680;6.172;2022-10-17T15:47:01;8.40;;;7.50;;
53263;SDS011;39153;52.680;6.172;2022-10-17T15:49:27;9.20;;;6.70;;
53263;SDS011;39153;52.680;6.172;2022-10-17T15:51:53;8.68;;;6.65;;
53263;SDS011;39153;52.680;6.172;2022-10-17T15:54:18;9.48;;;6.95;;
53263;SDS011;39153;52.680;6.172;2022-10-17T15:56:46;9.55;;;7.13;;
53263;SDS011;39153;52.680;6.172;2022-10-17T15:59:17;10.30;;;7.13;;
53263;SDS011;39153;52.680;6.172;2022-10-17T16:01:46;11.32;;;7.28;;
53263;SDS011;39153;52.680;6.172;2022-10-17T16:04:12;16.27;;;13.77;;
53263;SDS011;39153;52.680;6.172;2022-10-17T16:06:39;30.38;;;27.23;;
53263;SDS011;39153;52.680;6.172;2022-10-17T16:09:06;13.88;;;11.77;;
53263;SDS011;39153;52.680;6.172;2022-10-17T16:11:33;11.80;;;10.55;;
53263;SDS011;39153;52.680;6.172;2022-10-17T16:14:02;10.85;;;8.80;;
53263;SDS011;39153;52.680;6.172;2022-10-17T16:16:33;10.25;;;8.68;;
53263;SDS011;39153;52.680;6.172;2022-10-17T16:18:59;11.60;;;8.30;;
53263;SDS011;39153;52.680;6.172;2022-10-17T16:21:26;10.85;;;9.07;;
53263;SDS011;39153;52.680;6.172;2022-10-17T16:23:54;9.63;;;8.23;;
53263;SDS011;39153;52.680;6.172;2022-10-17T16:26:21;11.48;;;9.32;;
53263;SDS011;39153;52.680;6.172;2022-10-17T16:28:47;11.82;;;9.35;;
53263;SDS011;39153;52.680;6.172;2022-10-17T16:31:26;13.20;;;9.70;;
53263;SDS011;39153;52.680;6.172;2022-10-17T16:33:54;12.15;;;9.48;;
53263;SDS011;39153;52.680;6.172;2022-10-17T16:36:21;14.02;;;9.35;;
53263;SDS011;39153;52.680;6.172;2022-10-17T16:38:47;11.85;;;10.13;;
53263;SDS011;39153;52.680;6.172;2022-10-17T16:43:51;15.00;;;11.23;;
53263;SDS011;39153;52.680;6.172;2022-10-17T16:46:18;13.77;;;10.93;;
53263;SDS011;39153;52.680;6.172;2022-10-17T16:48:45;13.85;;;12.02;;
53263;SDS011;39153;52.680;6.172;2022-10-17T16:51:11;19.65;;;14.45;;
53263;SDS011;39153;52.680;6.172;2022-10-17T16:53:38;14.65;;;13.10;;
53263;SDS011;39153;52.680;6.172;2022-10-17T16:56:07;17.38;;;13.65;;
53263;SDS011;39153;52.680;6.172;2022-10-17T16:58:34;18.40;;;12.55;;
53263;SDS011;39153;52.680;6.172;2022-10-17T17:01:01;17.77;;;13.68;;
53263;SDS011;39153;52.680;6.172;2022-10-17T17:03:28;17.27;;;14.27;;
53263;SDS011;39153;52.680;6.172;2022-10-17T17:05:53;19.45;;;15.52;;
53263;SDS011;39153;52.680;6.172;2022-10-17T17:08:19;21.08;;;16.20;;